createdAt,value
2017-09-30T00:00:21.727Z,1005.67
2017-09-30T00:01:23.162Z,1005.69
2017-09-30T00:02:24.579Z,1005.72
2017-09-30T00:03:25.997Z,1005.67
2017-09-30T00:04:27.423Z,1005.68
2017-09-30T00:05:28.833Z,1005.69
2017-09-30T00:06:30.261Z,1005.64
2017-09-30T00:07:31.673Z,1005.66
2017-09-30T00:08:33.106Z,1005.66
2017-09-30T00:09:34.536Z,1005.64
2017-09-30T00:10:35.948Z,1005.68
2017-09-30T00:11:37.365Z,1005.66
2017-09-30T00:12:38.783Z,1005.69
2017-09-30T00:13:40.211Z,1005.74
2017-09-30T00:14:41.637Z,1005.72
2017-09-30T00:15:43.067Z,1005.77
2017-09-30T00:16:44.489Z,1005.75
2017-09-30T00:17:45.917Z,1005.73
2017-09-30T00:18:47.339Z,1005.70
2017-09-30T00:19:48.763Z,1005.73
2017-09-30T00:20:50.192Z,1005.69
2017-09-30T00:21:51.610Z,1005.71
2017-09-30T00:22:53.029Z,1005.67
2017-09-30T00:23:54.446Z,1005.77
2017-09-30T00:24:55.871Z,1005.75
2017-09-30T00:25:57.297Z,1005.76
2017-09-30T00:26:58.726Z,1005.78
2017-09-30T00:28:00.159Z,1005.79
2017-09-30T00:29:01.592Z,1005.78
2017-09-30T00:30:03.011Z,1005.79
2017-09-30T00:31:04.436Z,1005.77
2017-09-30T00:32:05.858Z,1005.82
2017-09-30T00:33:07.277Z,1005.85
2017-09-30T00:34:08.697Z,1005.82
2017-09-30T00:35:10.140Z,1005.85
2017-09-30T00:36:11.568Z,1005.82
2017-09-30T00:37:12.987Z,1005.83
2017-09-30T00:38:14.408Z,1005.79
2017-09-30T00:39:15.827Z,1005.81
2017-09-30T00:40:17.250Z,1005.80
2017-09-30T00:41:18.682Z,1005.80
2017-09-30T00:42:20.207Z,1005.83
2017-09-30T00:43:21.628Z,1005.82
2017-09-30T00:44:23.046Z,1005.87
2017-09-30T00:45:24.468Z,1005.87
2017-09-30T00:46:25.895Z,1005.90
2017-09-30T00:47:27.330Z,1005.91
2017-09-30T00:48:28.743Z,1005.90
2017-09-30T00:49:30.164Z,1005.87
2017-09-30T00:50:31.590Z,1005.91
2017-09-30T00:51:33.019Z,1005.88
2017-09-30T00:52:34.423Z,1005.88
2017-09-30T00:53:35.843Z,1005.91
2017-09-30T00:54:37.268Z,1005.91
2017-09-30T00:55:38.694Z,1005.89
2017-09-30T00:56:40.114Z,1005.91
2017-09-30T00:57:41.536Z,1005.93
2017-09-30T00:58:42.957Z,1005.93
2017-09-30T00:59:44.381Z,1005.90
2017-09-30T01:00:45.799Z,1005.94
2017-09-30T01:01:47.215Z,1005.90
2017-09-30T01:02:48.637Z,1005.89
2017-09-30T01:03:50.056Z,1005.92
2017-09-30T01:04:51.478Z,1005.92
2017-09-30T01:05:52.902Z,1005.93
2017-09-30T01:06:54.328Z,1005.92
2017-09-30T01:07:55.744Z,1005.91
2017-09-30T01:08:57.165Z,1005.93
2017-09-30T01:09:58.581Z,1005.92
2017-09-30T01:10:59.996Z,1005.90
2017-09-30T01:12:01.419Z,1005.88
2017-09-30T01:13:02.842Z,1005.89
2017-09-30T01:14:04.265Z,1005.89
2017-09-30T01:15:05.689Z,1005.94
2017-09-30T01:16:07.113Z,1005.92
2017-09-30T01:17:08.541Z,1005.93
2017-09-30T01:18:09.963Z,1005.93
2017-09-30T01:19:11.377Z,1005.94
2017-09-30T01:20:12.799Z,1005.98
2017-09-30T01:21:14.224Z,1005.99
2017-09-30T01:22:15.627Z,1005.97
2017-09-30T01:23:17.048Z,1005.96
2017-09-30T01:24:18.472Z,1005.97
2017-09-30T01:25:19.903Z,1006.01
2017-09-30T01:26:21.325Z,1006.01
2017-09-30T01:27:22.748Z,1006.01
2017-09-30T01:28:24.257Z,1006.03
2017-09-30T01:29:25.676Z,1006.05
2017-09-30T01:30:27.102Z,1006.03
2017-09-30T01:31:28.531Z,1006.03
2017-09-30T01:32:29.982Z,1006.03
2017-09-30T01:33:31.403Z,1006.11
2017-09-30T01:34:32.827Z,1006.10
2017-09-30T01:35:34.259Z,1006.08
2017-09-30T01:36:35.690Z,1006.05
2017-09-30T01:37:37.104Z,1006.11
2017-09-30T01:38:38.520Z,1006.10
2017-09-30T01:39:39.944Z,1006.10
2017-09-30T01:40:41.367Z,1006.12
2017-09-30T01:41:42.784Z,1006.19
2017-09-30T01:42:44.204Z,1006.18
2017-09-30T01:43:45.628Z,1006.18
2017-09-30T01:44:47.045Z,1006.19
2017-09-30T01:45:48.467Z,1006.16
2017-09-30T01:46:49.889Z,1006.17
2017-09-30T01:47:51.309Z,1006.18
2017-09-30T01:48:52.735Z,1006.14
2017-09-30T01:49:54.157Z,1006.17
2017-09-30T01:50:55.576Z,1006.19
2017-09-30T01:51:57.003Z,1006.17
2017-09-30T01:52:58.421Z,1006.20
2017-09-30T01:53:59.846Z,1006.23
2017-09-30T01:55:01.267Z,1006.23
2017-09-30T01:56:02.690Z,1006.23
2017-09-30T01:57:04.108Z,1006.27
2017-09-30T01:58:05.531Z,1006.25
2017-09-30T01:59:06.947Z,1006.25
2017-09-30T02:00:08.365Z,1006.23
2017-09-30T02:01:09.790Z,1006.18
2017-09-30T02:02:11.216Z,1006.20
2017-09-30T02:03:12.637Z,1006.21
2017-09-30T02:04:14.065Z,1006.20
2017-09-30T02:05:15.489Z,1006.23
2017-09-30T02:06:16.921Z,1006.26
2017-09-30T02:07:18.346Z,1006.29
2017-09-30T02:08:19.765Z,1006.25
2017-09-30T02:09:21.182Z,1006.21
2017-09-30T02:10:22.610Z,1006.27
2017-09-30T02:11:24.027Z,1006.28
2017-09-30T02:12:25.444Z,1006.23
2017-09-30T02:13:26.874Z,1006.23
2017-09-30T02:14:28.302Z,1006.21
2017-09-30T02:15:29.736Z,1006.15
2017-09-30T02:16:31.155Z,1006.11
2017-09-30T02:17:32.575Z,1006.04
2017-09-30T02:18:34.001Z,1006.10
2017-09-30T02:19:35.420Z,1006.10
2017-09-30T02:20:36.839Z,1006.11
2017-09-30T02:21:38.332Z,1006.10
2017-09-30T02:22:39.779Z,1006.07
2017-09-30T02:23:41.195Z,1006.09
2017-09-30T02:24:42.617Z,1005.98
2017-09-30T02:25:44.049Z,1005.97
2017-09-30T02:26:45.476Z,1005.88
2017-09-30T02:27:46.891Z,1005.81
2017-09-30T02:28:48.305Z,1005.82
2017-09-30T02:29:49.730Z,1005.83
2017-09-30T02:30:51.157Z,1005.79
2017-09-30T02:31:52.586Z,1005.90
2017-09-30T02:32:54.008Z,1005.94
2017-09-30T02:33:55.426Z,1006.04
2017-09-30T02:34:56.848Z,1006.08
2017-09-30T02:35:58.266Z,1006.09
2017-09-30T02:36:59.685Z,1006.05
2017-09-30T02:38:01.115Z,1006.03
2017-09-30T02:39:02.522Z,1006.05
2017-09-30T02:40:03.948Z,1006.17
2017-09-30T02:41:05.371Z,1006.16
2017-09-30T02:42:06.800Z,1006.15
2017-09-30T02:43:08.215Z,1006.11
2017-09-30T02:44:09.633Z,1006.06
2017-09-30T02:45:11.052Z,1006.00
2017-09-30T02:46:12.472Z,1005.99
2017-09-30T02:47:13.894Z,1005.93
2017-09-30T02:48:15.305Z,1005.87
2017-09-30T02:49:16.727Z,1005.87
2017-09-30T02:50:18.147Z,1005.80
2017-09-30T02:51:19.570Z,1005.75
2017-09-30T02:52:20.988Z,1005.75
2017-09-30T02:53:22.405Z,1005.91
2017-09-30T02:54:23.826Z,1005.97
2017-09-30T02:55:25.247Z,1006.03
2017-09-30T02:56:26.668Z,1006.04
2017-09-30T02:57:28.086Z,1005.98
2017-09-30T02:58:29.505Z,1005.95
2017-09-30T02:59:30.927Z,1005.96
2017-09-30T03:00:32.343Z,1005.96
2017-09-30T03:01:33.762Z,1005.94
2017-09-30T03:02:35.180Z,1005.91
2017-09-30T03:03:36.599Z,1005.97
2017-09-30T03:04:38.072Z,1005.97
2017-09-30T03:05:39.488Z,1005.95
2017-09-30T03:06:40.905Z,1005.95
2017-09-30T03:07:42.333Z,1005.91
2017-09-30T03:08:43.755Z,1005.86
2017-09-30T03:09:45.177Z,1005.82
2017-09-30T03:10:46.592Z,1005.79
2017-09-30T03:11:48.015Z,1005.79
2017-09-30T03:12:49.438Z,1005.69
2017-09-30T03:13:50.859Z,1005.66
2017-09-30T03:14:52.285Z,1005.64
2017-09-30T03:15:53.708Z,1005.62
2017-09-30T03:16:55.124Z,1005.62
2017-09-30T03:17:56.550Z,1005.56
2017-09-30T03:18:57.965Z,1005.53
2017-09-30T03:19:59.382Z,1005.50
2017-09-30T03:21:00.797Z,1005.46
2017-09-30T03:22:02.215Z,1005.45
2017-09-30T03:23:03.633Z,1005.45
2017-09-30T03:24:05.054Z,1005.41
2017-09-30T03:25:06.471Z,1005.38
2017-09-30T03:26:07.892Z,1005.40
2017-09-30T03:27:09.309Z,1005.38
2017-09-30T03:28:10.731Z,1005.37
2017-09-30T03:29:12.159Z,1005.37
2017-09-30T03:30:13.581Z,1005.33
2017-09-30T03:31:15.006Z,1005.30
2017-09-30T03:32:16.424Z,1005.23
2017-09-30T03:33:17.847Z,1005.20
2017-09-30T03:34:19.265Z,1005.14
2017-09-30T03:35:20.687Z,1005.10
2017-09-30T03:36:22.102Z,1005.09
2017-09-30T03:37:23.526Z,1005.08
2017-09-30T03:38:24.939Z,1005.07
2017-09-30T03:39:26.354Z,1005.05
2017-09-30T03:40:27.771Z,1005.00
2017-09-30T03:41:29.195Z,1004.99
2017-09-30T03:42:30.622Z,1004.94
2017-09-30T03:43:32.040Z,1004.96
2017-09-30T03:44:33.463Z,1004.91
2017-09-30T03:45:34.875Z,1004.91
2017-09-30T03:46:36.300Z,1004.94
2017-09-30T03:47:37.759Z,1004.92
2017-09-30T03:48:39.178Z,1004.91
2017-09-30T03:49:40.598Z,1004.96
2017-09-30T03:50:42.019Z,1004.94
2017-09-30T03:51:43.447Z,1004.98
2017-09-30T03:52:44.862Z,1004.96
2017-09-30T03:53:46.364Z,1004.96
2017-09-30T03:54:47.783Z,1005.01
2017-09-30T03:55:49.206Z,1005.03
2017-09-30T03:56:50.626Z,1005.05
2017-09-30T03:57:52.056Z,1005.04
2017-09-30T03:58:53.482Z,1004.97
2017-09-30T03:59:54.892Z,1004.91
2017-09-30T04:00:56.311Z,1004.90
2017-09-30T04:01:57.728Z,1004.86
2017-09-30T04:02:59.151Z,1004.88
2017-09-30T04:04:00.566Z,1004.85
2017-09-30T04:05:01.987Z,1004.85
2017-09-30T04:06:03.434Z,1004.85
2017-09-30T04:07:04.830Z,1004.83
2017-09-30T04:08:06.258Z,1004.84
2017-09-30T04:09:07.672Z,1004.87
2017-09-30T04:10:09.096Z,1004.86
2017-09-30T04:11:10.508Z,1004.86
2017-09-30T04:12:11.931Z,1004.82
2017-09-30T04:13:13.348Z,1004.80
2017-09-30T04:14:14.766Z,1004.78
2017-09-30T04:15:16.186Z,1004.78
2017-09-30T04:16:17.606Z,1004.71
2017-09-30T04:17:19.025Z,1004.71
2017-09-30T04:18:20.448Z,1004.64
2017-09-30T04:19:21.864Z,1004.59
2017-09-30T04:20:23.300Z,1004.56
2017-09-30T04:21:24.720Z,1004.65
2017-09-30T04:22:26.141Z,1004.62
2017-09-30T04:23:27.556Z,1004.60
2017-09-30T04:24:28.977Z,1004.57
2017-09-30T04:25:30.408Z,1004.57
2017-09-30T04:26:31.840Z,1004.52
2017-09-30T04:27:33.252Z,1004.47
2017-09-30T04:28:34.672Z,1004.42
2017-09-30T04:29:36.089Z,1004.42
2017-09-30T04:30:37.516Z,1004.41
2017-09-30T04:31:38.936Z,1004.42
2017-09-30T04:32:40.355Z,1004.40
2017-09-30T04:33:41.769Z,1004.39
2017-09-30T04:34:43.189Z,1004.36
2017-09-30T04:35:44.609Z,1004.32
2017-09-30T04:36:46.042Z,1004.31
2017-09-30T04:37:47.468Z,1004.32
2017-09-30T04:38:48.889Z,1004.31
2017-09-30T04:39:50.309Z,1004.30
2017-09-30T04:40:51.730Z,1004.29
2017-09-30T04:41:53.155Z,1004.28
2017-09-30T04:42:54.573Z,1004.29
2017-09-30T04:43:55.990Z,1004.32
2017-09-30T04:44:57.411Z,1004.33
2017-09-30T04:45:58.829Z,1004.37
2017-09-30T04:47:00.248Z,1004.41
2017-09-30T04:48:01.668Z,1004.41
2017-09-30T04:49:03.093Z,1004.39
2017-09-30T04:50:04.501Z,1004.42
2017-09-30T04:51:05.916Z,1004.45
2017-09-30T04:52:07.337Z,1004.44
2017-09-30T04:53:08.758Z,1004.43
2017-09-30T04:54:10.180Z,1004.47
2017-09-30T04:55:11.600Z,1004.43
2017-09-30T04:56:13.019Z,1004.49
2017-09-30T04:57:14.433Z,1004.45
2017-09-30T04:58:15.858Z,1004.46
2017-09-30T04:59:17.278Z,1004.43
2017-09-30T05:00:18.701Z,1004.45
2017-09-30T05:01:20.127Z,1004.41
2017-09-30T05:02:21.536Z,1004.38
2017-09-30T05:03:22.958Z,1004.42
2017-09-30T05:04:24.378Z,1004.43
2017-09-30T05:05:25.811Z,1004.41
2017-09-30T05:06:27.213Z,1004.43
2017-09-30T05:07:28.626Z,1004.41
2017-09-30T05:08:30.048Z,1004.43
2017-09-30T05:09:31.466Z,1004.45
2017-09-30T05:10:32.885Z,1004.49
2017-09-30T05:11:34.301Z,1004.46
2017-09-30T05:12:35.730Z,1004.46
2017-09-30T05:13:37.143Z,1004.46
2017-09-30T05:14:38.567Z,1004.44
2017-09-30T05:15:39.997Z,1004.49
2017-09-30T05:16:41.415Z,1004.50
2017-09-30T05:17:42.830Z,1004.55
2017-09-30T05:18:44.258Z,1004.55
2017-09-30T05:19:45.735Z,1004.50
2017-09-30T05:20:47.156Z,1004.50
2017-09-30T05:21:48.577Z,1004.46
2017-09-30T05:22:49.995Z,1004.46
2017-09-30T05:23:51.414Z,1004.44
2017-09-30T05:24:52.835Z,1004.42
2017-09-30T05:25:54.249Z,1004.43
2017-09-30T05:26:55.671Z,1004.40
2017-09-30T05:27:57.089Z,1004.37
2017-09-30T05:28:58.503Z,1004.40
2017-09-30T05:29:59.923Z,1004.40
2017-09-30T05:31:01.348Z,1004.47
2017-09-30T05:32:02.767Z,1004.43
2017-09-30T05:33:04.189Z,1004.50
2017-09-30T05:34:05.609Z,1004.49
2017-09-30T05:35:07.033Z,1004.50
2017-09-30T05:36:08.484Z,1004.46
2017-09-30T05:37:09.895Z,1004.47
2017-09-30T05:38:11.321Z,1004.51
2017-09-30T05:39:12.740Z,1004.55
2017-09-30T05:40:14.164Z,1004.56
2017-09-30T05:41:15.588Z,1004.58
2017-09-30T05:42:17.019Z,1004.59
2017-09-30T05:43:18.441Z,1004.60
2017-09-30T05:44:19.863Z,1004.58
2017-09-30T05:45:21.289Z,1004.64
2017-09-30T05:46:22.706Z,1004.61
2017-09-30T05:47:24.132Z,1004.66
2017-09-30T05:48:25.555Z,1004.64
2017-09-30T05:49:26.996Z,1004.67
2017-09-30T05:50:28.393Z,1004.64
2017-09-30T05:51:29.807Z,1004.64
2017-09-30T05:52:31.230Z,1004.60
2017-09-30T05:53:32.657Z,1004.60
2017-09-30T05:54:34.089Z,1004.61
2017-09-30T05:55:35.518Z,1004.63
2017-09-30T05:56:36.942Z,1004.66
2017-09-30T05:57:38.364Z,1004.63
2017-09-30T05:58:39.780Z,1004.62
2017-09-30T05:59:41.197Z,1004.62
2017-09-30T06:00:42.630Z,1004.59
2017-09-30T06:01:44.041Z,1004.64
2017-09-30T06:02:45.457Z,1004.60
2017-09-30T06:03:46.881Z,1004.65
2017-09-30T06:04:48.299Z,1004.68
2017-09-30T06:05:49.732Z,1004.67
2017-09-30T06:06:51.146Z,1004.64
2017-09-30T06:07:52.568Z,1004.61
2017-09-30T06:08:53.986Z,1004.61
2017-09-30T06:09:55.410Z,1004.64
2017-09-30T06:10:56.832Z,1004.65
2017-09-30T06:11:58.251Z,1004.66
2017-09-30T06:12:59.672Z,1004.65
2017-09-30T06:14:01.096Z,1004.64
2017-09-30T06:15:02.517Z,1004.62
2017-09-30T06:16:03.952Z,1004.62
2017-09-30T06:17:05.375Z,1004.55
2017-09-30T06:18:06.793Z,1004.54
2017-09-30T06:19:08.219Z,1004.53
2017-09-30T06:20:09.636Z,1004.55
2017-09-30T06:21:11.063Z,1004.55
2017-09-30T06:22:12.480Z,1004.55
2017-09-30T06:23:13.907Z,1004.55
2017-09-30T06:24:15.330Z,1004.55
2017-09-30T06:25:18.186Z,1004.50
2017-09-30T06:26:19.611Z,1004.45
2017-09-30T06:27:21.040Z,1004.42
2017-09-30T06:28:22.461Z,1004.38
2017-09-30T06:29:23.943Z,1004.39
2017-09-30T06:30:25.368Z,1004.37
2017-09-30T06:31:26.792Z,1004.37
2017-09-30T06:32:28.242Z,1004.33
2017-09-30T06:33:29.670Z,1004.31
2017-09-30T06:34:31.098Z,1004.34
2017-09-30T06:35:32.526Z,1004.38
2017-09-30T06:36:33.963Z,1004.38
2017-09-30T06:37:35.388Z,1004.38
2017-09-30T06:38:36.820Z,1004.37
2017-09-30T06:39:38.242Z,1004.29
2017-09-30T06:40:39.667Z,1004.31
2017-09-30T06:41:41.089Z,1004.28
2017-09-30T06:42:42.508Z,1004.28
2017-09-30T06:43:43.925Z,1004.32
2017-09-30T06:44:45.346Z,1004.31
2017-09-30T06:45:46.766Z,1004.33
2017-09-30T06:46:48.191Z,1004.38
2017-09-30T06:47:49.612Z,1004.36
2017-09-30T06:48:51.034Z,1004.34
2017-09-30T06:49:52.463Z,1004.34
2017-09-30T06:50:53.882Z,1004.37
2017-09-30T06:51:55.313Z,1004.41
2017-09-30T06:52:56.731Z,1004.42
2017-09-30T06:53:58.157Z,1004.43
2017-09-30T06:54:59.581Z,1004.39
2017-09-30T06:56:01.009Z,1004.39
2017-09-30T06:57:02.426Z,1004.41
2017-09-30T06:58:03.863Z,1004.37
2017-09-30T06:59:05.269Z,1004.37
2017-09-30T07:00:06.701Z,1004.35
2017-09-30T07:01:08.153Z,1004.33
2017-09-30T07:02:09.578Z,1004.37
2017-09-30T07:03:11.006Z,1004.33
2017-09-30T07:04:12.426Z,1004.35
2017-09-30T07:05:13.856Z,1004.33
2017-09-30T07:06:15.310Z,1004.32
2017-09-30T07:07:16.709Z,1004.37
2017-09-30T07:08:18.139Z,1004.34
2017-09-30T07:09:19.571Z,1004.35
2017-09-30T07:10:20.992Z,1004.33
2017-09-30T07:11:22.410Z,1004.35
2017-09-30T07:12:23.831Z,1004.36
2017-09-30T07:13:25.253Z,1004.35
2017-09-30T07:14:26.678Z,1004.34
2017-09-30T07:15:28.108Z,1004.33
2017-09-30T07:16:29.533Z,1004.33
2017-09-30T07:17:30.963Z,1004.37
2017-09-30T07:18:32.382Z,1004.31
2017-09-30T07:19:33.821Z,1004.31
2017-09-30T07:20:35.246Z,1004.29
2017-09-30T07:21:36.673Z,1004.27
2017-09-30T07:22:38.093Z,1004.29
2017-09-30T07:23:39.589Z,1004.27
2017-09-30T07:24:41.015Z,1004.29
2017-09-30T07:25:42.482Z,1004.26
2017-09-30T07:26:43.923Z,1004.27
2017-09-30T07:27:45.344Z,1004.28
2017-09-30T07:28:46.765Z,1004.30
2017-09-30T07:29:48.191Z,1004.26
2017-09-30T07:30:49.617Z,1004.30
2017-09-30T07:31:51.044Z,1004.27
2017-09-30T07:32:52.473Z,1004.29
2017-09-30T07:33:53.931Z,1004.27
2017-09-30T07:34:55.356Z,1004.27
2017-09-30T07:35:56.777Z,1004.24
2017-09-30T07:36:58.214Z,1004.25
2017-09-30T07:38:00.212Z,1004.21
2017-09-30T07:39:01.637Z,1004.21
2017-09-30T07:40:03.064Z,1004.24
2017-09-30T07:41:04.485Z,1004.18
2017-09-30T07:42:05.910Z,1004.21
2017-09-30T07:43:07.339Z,1004.19
2017-09-30T07:44:08.758Z,1004.18
2017-09-30T07:45:10.175Z,1004.15
2017-09-30T07:46:11.597Z,1004.18
2017-09-30T07:47:13.023Z,1004.14
2017-09-30T07:48:14.447Z,1004.12
2017-09-30T07:49:15.873Z,1004.17
2017-09-30T07:50:17.304Z,1004.16
2017-09-30T07:51:18.724Z,1004.13
2017-09-30T07:52:20.152Z,1004.14
2017-09-30T07:53:21.578Z,1004.18
2017-09-30T07:54:23.018Z,1004.17
2017-09-30T07:55:24.439Z,1004.18
2017-09-30T07:56:25.870Z,1004.17
2017-09-30T07:57:27.292Z,1004.21
2017-09-30T07:58:28.738Z,1004.18
2017-09-30T07:59:30.173Z,1004.22
2017-09-30T08:00:31.596Z,1004.20
2017-09-30T08:01:33.031Z,1004.20
2017-09-30T08:02:34.456Z,1004.22
2017-09-30T08:03:35.878Z,1004.22
2017-09-30T08:04:37.298Z,1004.23
2017-09-30T08:05:38.729Z,1004.18
2017-09-30T08:06:40.163Z,1004.21
2017-09-30T08:07:41.620Z,1004.24
2017-09-30T08:08:43.046Z,1004.24
2017-09-30T08:09:44.466Z,1004.31
2017-09-30T08:10:45.894Z,1004.34
2017-09-30T08:11:47.315Z,1004.31
2017-09-30T08:12:48.741Z,1004.32
2017-09-30T08:13:50.166Z,1004.35
2017-09-30T08:14:51.613Z,1004.34
2017-09-30T08:15:53.042Z,1004.40
2017-09-30T08:16:54.469Z,1004.39
2017-09-30T08:17:55.895Z,1004.34
2017-09-30T08:18:57.320Z,1004.31
2017-09-30T08:19:58.752Z,1004.31
2017-09-30T08:21:00.182Z,1004.35
2017-09-30T08:22:01.609Z,1004.27
2017-09-30T08:23:03.042Z,1004.29
2017-09-30T08:24:04.471Z,1004.33
2017-09-30T08:25:05.895Z,1004.28
2017-09-30T08:26:07.328Z,1004.30
2017-09-30T08:27:08.756Z,1004.27
2017-09-30T08:28:10.189Z,1004.26
2017-09-30T08:29:11.608Z,1004.27
2017-09-30T08:30:13.037Z,1004.31
2017-09-30T08:31:14.459Z,1004.25
2017-09-30T08:32:15.888Z,1004.23
2017-09-30T08:33:17.342Z,1004.16
2017-09-30T08:34:18.768Z,1004.18
2017-09-30T08:35:20.185Z,1004.19
2017-09-30T08:36:21.611Z,1004.18
2017-09-30T08:37:23.046Z,1004.19
2017-09-30T08:38:24.468Z,1004.11
2017-09-30T08:39:25.902Z,1004.11
2017-09-30T08:40:27.328Z,1004.10
2017-09-30T08:41:28.749Z,1004.08
2017-09-30T08:42:30.171Z,1004.06
2017-09-30T08:43:31.597Z,1004.07
2017-09-30T08:44:33.025Z,1004.00
2017-09-30T08:45:34.459Z,1004.00
2017-09-30T08:46:35.888Z,1004.03
2017-09-30T08:47:37.321Z,1003.99
2017-09-30T08:48:38.742Z,1004.00
2017-09-30T08:49:40.181Z,1004.06
2017-09-30T08:50:41.601Z,1004.05
2017-09-30T08:51:43.031Z,1003.99
2017-09-30T08:52:44.449Z,1003.95
2017-09-30T08:53:45.887Z,1003.94
2017-09-30T08:54:47.312Z,1003.85
2017-09-30T08:55:48.744Z,1003.84
2017-09-30T08:56:50.166Z,1003.86
2017-09-30T08:57:51.589Z,1003.81
2017-09-30T08:58:53.015Z,1003.78
2017-09-30T08:59:54.436Z,1003.81
2017-09-30T09:00:55.847Z,1003.76
2017-09-30T09:01:57.275Z,1003.75
2017-09-30T09:02:58.715Z,1003.75
2017-09-30T09:04:00.155Z,1003.71
2017-09-30T09:05:01.584Z,1003.67
2017-09-30T09:06:03.002Z,1003.67
2017-09-30T09:07:04.425Z,1003.67
2017-09-30T09:08:05.848Z,1003.64
2017-09-30T09:09:07.270Z,1003.60
2017-09-30T09:10:08.690Z,1003.65
2017-09-30T09:11:10.120Z,1003.62
2017-09-30T09:12:11.548Z,1003.67
2017-09-30T09:13:12.970Z,1003.65
2017-09-30T09:14:14.400Z,1003.63
2017-09-30T09:15:15.831Z,1003.64
2017-09-30T09:16:17.264Z,1003.63
2017-09-30T09:17:18.686Z,1003.61
2017-09-30T09:18:20.106Z,1003.61
2017-09-30T09:19:21.529Z,1003.54
2017-09-30T09:20:22.961Z,1003.50
2017-09-30T09:21:24.381Z,1003.50
2017-09-30T09:22:25.811Z,1003.45
2017-09-30T09:23:27.228Z,1003.44
2017-09-30T09:24:28.656Z,1003.42
2017-09-30T09:25:30.077Z,1003.44
2017-09-30T09:26:31.500Z,1003.39
2017-09-30T09:27:32.920Z,1003.34
2017-09-30T09:28:34.353Z,1003.35
2017-09-30T09:29:35.786Z,1003.37
2017-09-30T09:30:37.224Z,1003.36
2017-09-30T09:31:38.653Z,1003.33
2017-09-30T09:32:40.082Z,1003.36
2017-09-30T09:33:41.501Z,1003.37
2017-09-30T09:34:42.928Z,1003.33
2017-09-30T09:35:44.357Z,1003.31
2017-09-30T09:36:45.784Z,1003.28
2017-09-30T09:37:47.213Z,1003.24
2017-09-30T09:38:48.639Z,1003.24
2017-09-30T09:39:50.072Z,1003.18
2017-09-30T09:40:51.503Z,1003.19
2017-09-30T09:41:52.938Z,1003.17
2017-09-30T09:42:54.368Z,1003.19
2017-09-30T09:43:55.790Z,1003.11
2017-09-30T09:44:57.219Z,1003.09
2017-09-30T09:45:58.652Z,1003.05
2017-09-30T09:47:00.079Z,1003.03
2017-09-30T09:48:01.501Z,1003.03
2017-09-30T09:49:02.929Z,1003.02
2017-09-30T09:50:04.369Z,1003.02
2017-09-30T09:51:05.794Z,1003.04
2017-09-30T09:52:07.219Z,1003.03
2017-09-30T09:53:08.650Z,1003.05
2017-09-30T09:54:10.075Z,1003.04
2017-09-30T09:55:11.501Z,1003.06
2017-09-30T09:56:12.960Z,1003.07
2017-09-30T09:57:16.228Z,1003.11
2017-09-30T09:58:17.598Z,1003.14
2017-09-30T09:59:19.038Z,1003.12
2017-09-30T10:00:20.505Z,1003.15
2017-09-30T10:01:21.944Z,1003.14
2017-09-30T10:02:23.382Z,1003.19
2017-09-30T10:03:24.804Z,1003.17
2017-09-30T10:04:26.235Z,1003.16
2017-09-30T10:05:27.700Z,1003.14
2017-09-30T10:06:29.119Z,1003.11
2017-09-30T10:07:30.553Z,1003.05
2017-09-30T10:08:31.974Z,1003.03
2017-09-30T10:09:33.402Z,1003.02
2017-09-30T10:10:34.861Z,1002.96
2017-09-30T10:11:36.325Z,1002.98
2017-09-30T10:12:37.763Z,1002.93
2017-09-30T10:13:39.175Z,1002.93
2017-09-30T10:14:40.609Z,1002.90
2017-09-30T10:15:42.050Z,1002.91
2017-09-30T10:16:43.483Z,1002.85
2017-09-30T10:17:44.910Z,1002.85
2017-09-30T10:18:46.332Z,1002.87
2017-09-30T10:19:47.857Z,1002.90
2017-09-30T10:20:49.275Z,1002.88
2017-09-30T10:21:50.702Z,1002.91
2017-09-30T10:22:52.224Z,1002.93
2017-09-30T10:23:53.678Z,1002.95
2017-09-30T10:24:55.106Z,1002.98
2017-09-30T10:25:56.544Z,1003.00
2017-09-30T10:26:58.009Z,1002.98
2017-09-30T10:27:59.439Z,1003.00
2017-09-30T10:29:00.860Z,1002.98
2017-09-30T10:30:02.302Z,1002.99
2017-09-30T10:31:03.728Z,1003.00
2017-09-30T10:32:05.157Z,1002.99
2017-09-30T10:33:06.581Z,1003.02
2017-09-30T10:34:08.012Z,1003.05
2017-09-30T10:35:09.435Z,1003.02
2017-09-30T10:36:10.858Z,1003.05
2017-09-30T10:37:12.318Z,1003.07
2017-09-30T10:38:13.744Z,1003.09
2017-09-30T10:39:15.166Z,1003.08
2017-09-30T10:40:16.596Z,1003.12
2017-09-30T10:41:18.029Z,1003.07
2017-09-30T10:42:19.452Z,1003.07
2017-09-30T10:43:20.874Z,1003.06
2017-09-30T10:44:22.296Z,1003.02
2017-09-30T10:45:23.724Z,1002.99
2017-09-30T10:46:25.156Z,1002.96
2017-09-30T10:47:26.581Z,1002.93
2017-09-30T10:48:27.998Z,1002.94
2017-09-30T10:49:29.434Z,1002.97
2017-09-30T10:50:30.859Z,1002.99
2017-09-30T10:51:32.284Z,1003.02
2017-09-30T10:52:33.709Z,1003.01
2017-09-30T10:53:35.156Z,1003.02
2017-09-30T10:54:36.560Z,1003.03
2017-09-30T10:55:38.008Z,1003.01
2017-09-30T10:56:39.443Z,1003.01
2017-09-30T10:57:40.872Z,1003.01
2017-09-30T10:58:42.289Z,1003.01
2017-09-30T10:59:43.719Z,1003.01
2017-09-30T11:00:45.142Z,1003.00
2017-09-30T11:01:46.567Z,1002.97
2017-09-30T11:02:47.990Z,1002.97
2017-09-30T11:03:49.422Z,1002.96
2017-09-30T11:04:50.856Z,1002.94
2017-09-30T11:05:52.283Z,1002.92
2017-09-30T11:06:53.702Z,1002.86
2017-09-30T11:07:55.121Z,1002.86
2017-09-30T11:08:56.547Z,1002.86
2017-09-30T11:09:57.970Z,1002.84
2017-09-30T11:10:59.392Z,1002.80
2017-09-30T11:12:00.812Z,1002.83
2017-09-30T11:13:02.236Z,1002.85
2017-09-30T11:14:03.660Z,1002.83
2017-09-30T11:15:05.088Z,1002.78
2017-09-30T11:16:06.511Z,1002.76
2017-09-30T11:17:07.931Z,1002.77
2017-09-30T11:18:09.358Z,1002.79
2017-09-30T11:19:10.780Z,1002.76
2017-09-30T11:20:12.201Z,1002.82
2017-09-30T11:21:13.621Z,1002.76
2017-09-30T11:22:15.040Z,1002.77
2017-09-30T11:23:16.468Z,1002.71
2017-09-30T11:24:17.904Z,1002.75
2017-09-30T11:25:19.319Z,1002.70
2017-09-30T11:26:20.753Z,1002.67
2017-09-30T11:27:22.183Z,1002.69
2017-09-30T11:28:23.626Z,1002.65
2017-09-30T11:29:25.047Z,1002.65
2017-09-30T11:30:26.477Z,1002.63
2017-09-30T11:31:27.974Z,1002.61
2017-09-30T11:32:29.393Z,1002.58
2017-09-30T11:33:30.819Z,1002.56
2017-09-30T11:34:32.256Z,1002.51
2017-09-30T11:35:33.797Z,1002.56
2017-09-30T11:36:35.230Z,1002.53
2017-09-30T11:37:36.652Z,1002.49
2017-09-30T11:38:38.119Z,1002.50
2017-09-30T11:39:39.553Z,1002.47
2017-09-30T11:40:41.008Z,1002.46
2017-09-30T11:41:42.438Z,1002.44
2017-09-30T11:42:43.883Z,1002.39
2017-09-30T11:43:45.301Z,1002.35
2017-09-30T11:44:46.716Z,1002.39
2017-09-30T11:45:48.147Z,1002.38
2017-09-30T11:46:49.579Z,1002.32
2017-09-30T11:47:51.005Z,1002.35
2017-09-30T11:48:52.427Z,1002.32
2017-09-30T11:49:53.853Z,1002.32
2017-09-30T11:50:55.286Z,1002.26
2017-09-30T11:51:56.714Z,1002.25
2017-09-30T11:52:58.140Z,1002.22
2017-09-30T11:53:59.562Z,1002.28
2017-09-30T11:55:00.988Z,1002.43
2017-09-30T11:56:02.408Z,1002.47
2017-09-30T11:57:03.829Z,1002.58
2017-09-30T11:58:05.255Z,1002.61
2017-09-30T11:59:06.679Z,1002.61
2017-09-30T12:00:08.118Z,1002.65
2017-09-30T12:01:09.533Z,1002.70
2017-09-30T12:02:10.957Z,1002.69
2017-09-30T12:03:12.390Z,1002.75
2017-09-30T12:04:13.819Z,1002.77
2017-09-30T12:05:15.246Z,1002.71
2017-09-30T12:06:16.671Z,1002.80
2017-09-30T12:07:18.098Z,1002.89
2017-09-30T12:08:19.526Z,1002.85
2017-09-30T12:09:20.955Z,1002.85
2017-09-30T12:10:22.379Z,1002.89
2017-09-30T12:11:23.811Z,1002.93
2017-09-30T12:12:25.231Z,1002.90
2017-09-30T12:13:26.663Z,1002.95
2017-09-30T12:14:28.098Z,1002.96
2017-09-30T12:15:29.532Z,1002.95
2017-09-30T12:16:30.957Z,1002.80
2017-09-30T12:17:32.389Z,1002.58
2017-09-30T12:18:33.837Z,1002.65
2017-09-30T12:19:35.257Z,1002.68
2017-09-30T12:20:36.675Z,1001.76
2017-09-30T12:21:38.125Z,1000.72
2017-09-30T12:22:39.551Z,1000.39